createdAt,value
2018-05-27T00:02:03.201Z,20.40
2018-05-27T00:04:30.964Z,17.83
2018-05-27T00:06:59.059Z,14.77
2018-05-27T00:09:26.964Z,14.53
2018-05-27T00:11:55.263Z,21.67
2018-05-27T00:14:23.322Z,15.87
2018-05-27T00:16:51.710Z,16.83
2018-05-27T00:19:19.759Z,17.40
2018-05-27T00:21:48.492Z,15.27
2018-05-27T00:24:16.841Z,14.97
2018-05-27T00:26:45.137Z,15.27
2018-05-27T00:29:14.058Z,14.40
2018-05-27T00:31:42.552Z,21.73
2018-05-27T00:34:10.645Z,15.93
2018-05-27T00:36:38.386Z,18.17
2018-05-27T00:39:07.685Z,15.80
2018-05-27T00:41:35.921Z,24.70
2018-05-27T00:44:03.985Z,16.20
2018-05-27T00:46:31.874Z,16.23
2018-05-27T00:48:59.964Z,19.60
2018-05-27T00:51:29.401Z,17.27
2018-05-27T00:54:00.573Z,16.57
2018-05-27T00:56:29.284Z,23.43
2018-05-27T00:58:58.380Z,15.73
2018-05-27T01:01:26.747Z,15.00
2018-05-27T01:03:55.759Z,16.17
2018-05-27T01:06:23.596Z,15.80
2018-05-27T01:08:51.540Z,16.00
2018-05-27T01:11:19.999Z,16.97
2018-05-27T01:13:48.969Z,16.13
2018-05-27T01:16:17.231Z,17.87
2018-05-27T01:18:45.753Z,19.17
2018-05-27T01:21:13.969Z,17.77
2018-05-27T01:23:41.756Z,18.30
2018-05-27T01:26:10.316Z,17.63
2018-05-27T01:28:38.492Z,23.00
2018-05-27T01:31:06.208Z,18.20
2018-05-27T01:33:33.959Z,19.30
2018-05-27T01:36:03.054Z,18.70
2018-05-27T01:38:31.219Z,19.23
2018-05-27T01:40:58.928Z,19.17
2018-05-27T01:43:27.580Z,18.60
2018-05-27T01:45:55.700Z,18.53
2018-05-27T01:48:23.670Z,19.00
2018-05-27T01:50:51.741Z,17.80
2018-05-27T01:53:19.411Z,19.40
2018-05-27T01:55:47.975Z,18.87
2018-05-27T01:58:16.049Z,19.90
2018-05-27T02:00:45.419Z,24.23
2018-05-27T02:03:13.116Z,21.97
2018-05-27T02:05:41.023Z,22.10
2018-05-27T02:08:09.911Z,24.33
2018-05-27T02:10:39.539Z,20.23
2018-05-27T02:13:07.768Z,23.70
2018-05-27T02:15:35.469Z,22.17
2018-05-27T02:18:03.626Z,23.87
2018-05-27T02:20:31.928Z,20.50
2018-05-27T02:22:59.603Z,23.30
2018-05-27T02:25:28.571Z,23.13
2018-05-27T02:27:57.610Z,25.47
2018-05-27T02:30:30.460Z,26.17
2018-05-27T02:33:03.541Z,24.03
2018-05-27T02:35:37.458Z,25.97
2018-05-27T02:38:05.152Z,29.23
2018-05-27T02:40:33.022Z,26.60
2018-05-27T02:43:01.237Z,28.70
2018-05-27T02:45:30.125Z,30.97
2018-05-27T02:47:58.477Z,24.27
2018-05-27T02:50:27.183Z,24.43
2018-05-27T02:52:55.798Z,24.17
2018-05-27T02:55:23.533Z,25.17
2018-05-27T02:57:52.657Z,24.80
2018-05-27T03:00:20.911Z,24.43
2018-05-27T03:02:50.349Z,25.60
2018-05-27T03:05:18.911Z,25.07
2018-05-27T03:07:47.054Z,24.17
2018-05-27T03:10:16.391Z,24.87
2018-05-27T03:12:44.262Z,24.87
2018-05-27T03:15:12.832Z,24.27
2018-05-27T03:17:40.875Z,24.93
2018-05-27T03:20:09.717Z,23.43
2018-05-27T03:22:37.976Z,26.40
2018-05-27T03:25:06.124Z,25.00
2018-05-27T03:27:34.204Z,29.63
2018-05-27T03:30:01.899Z,25.23
2018-05-27T03:32:30.139Z,24.17
2018-05-27T03:34:57.973Z,29.13
2018-05-27T03:37:26.044Z,22.50
2018-05-27T03:39:54.364Z,24.07
2018-05-27T03:42:22.589Z,22.60
2018-05-27T03:44:50.585Z,23.53
2018-05-27T03:47:18.361Z,26.30
2018-05-27T03:49:47.253Z,22.97
2018-05-27T03:52:15.327Z,31.10
2018-05-27T03:54:43.503Z,24.43
2018-05-27T03:57:11.555Z,27.30
2018-05-27T03:59:39.531Z,26.67
2018-05-27T04:02:08.355Z,23.23
2018-05-27T04:05:01.008Z,19.73
2018-05-27T04:07:41.653Z,18.57
2018-05-27T04:10:09.855Z,19.30
2018-05-27T04:12:37.528Z,19.97
2018-05-27T04:15:06.239Z,18.33
2018-05-27T04:17:34.005Z,18.53
2018-05-27T04:20:02.640Z,17.73
2018-05-27T04:22:31.004Z,16.30
2018-05-27T04:25:00.014Z,18.17
2018-05-27T04:27:30.027Z,21.03
2018-05-27T04:29:57.693Z,15.73
2018-05-27T04:32:26.378Z,16.27
2018-05-27T04:34:54.817Z,16.20
2018-05-27T04:37:23.196Z,15.00
2018-05-27T04:39:51.167Z,15.43
2018-05-27T04:42:18.947Z,16.07
2018-05-27T04:44:49.228Z,16.33
2018-05-27T04:47:21.855Z,14.93
2018-05-27T04:49:54.792Z,15.93
2018-05-27T04:52:28.415Z,16.80
2018-05-27T04:54:56.387Z,16.60
2018-05-27T04:57:24.226Z,18.50
2018-05-27T04:59:52.173Z,19.23
2018-05-27T05:02:20.849Z,15.03
2018-05-27T05:04:49.940Z,14.73
2018-05-27T05:07:18.111Z,14.93
2018-05-27T05:09:47.000Z,15.57
2018-05-27T05:12:15.231Z,15.77
2018-05-27T05:14:43.923Z,14.77
2018-05-27T05:17:11.761Z,14.80
2018-05-27T05:19:40.325Z,14.60
2018-05-27T05:22:09.013Z,14.03
2018-05-27T05:24:36.695Z,13.83
2018-05-27T05:27:05.575Z,14.67
2018-05-27T05:29:34.008Z,13.87
2018-05-27T05:32:02.414Z,14.90
2018-05-27T05:34:30.265Z,17.33
2018-05-27T05:36:58.194Z,16.97
2018-05-27T05:39:27.071Z,15.43
2018-05-27T05:41:54.817Z,15.90
2018-05-27T05:44:22.812Z,15.93
2018-05-27T05:46:50.532Z,16.37
2018-05-27T05:49:18.651Z,16.20
2018-05-27T05:51:46.553Z,15.83
2018-05-27T05:54:15.042Z,16.50
2018-05-27T05:56:44.118Z,16.50
2018-05-27T05:59:12.092Z,16.40
2018-05-27T06:01:39.828Z,15.70
2018-05-27T06:04:08.535Z,16.20
2018-05-27T06:06:36.216Z,16.57
2018-05-27T06:09:05.416Z,15.47
2018-05-27T06:11:33.733Z,15.87
2018-05-27T06:14:01.561Z,14.40
2018-05-27T06:16:29.229Z,15.20
2018-05-27T06:18:57.994Z,13.33
2018-05-27T06:21:26.085Z,13.73
2018-05-27T06:23:54.589Z,13.53
2018-05-27T06:26:22.668Z,12.63
2018-05-27T06:28:50.824Z,11.90
2018-05-27T06:31:18.915Z,11.50
2018-05-27T06:33:47.580Z,10.87
2018-05-27T06:36:16.265Z,9.53
2018-05-27T06:38:44.999Z,10.40
2018-05-27T06:41:13.854Z,10.97
2018-05-27T06:43:42.128Z,10.70
2018-05-27T06:46:10.389Z,11.07
2018-05-27T06:48:38.582Z,10.17
2018-05-27T06:51:06.413Z,12.43
2018-05-27T06:53:34.596Z,9.43
2018-05-27T06:56:02.776Z,9.73
2018-05-27T06:58:30.841Z,9.70
2018-05-27T07:00:58.798Z,10.10
2018-05-27T07:03:27.877Z,11.13
2018-05-27T07:05:56.978Z,10.53
2018-05-27T07:08:24.681Z,10.97
2018-05-27T07:10:53.371Z,9.67
2018-05-27T07:13:21.941Z,8.43
2018-05-27T07:15:50.624Z,9.87
2018-05-27T07:18:18.903Z,8.97
2018-05-27T07:20:47.040Z,8.30
2018-05-27T07:23:15.467Z,8.97
2018-05-27T07:25:43.336Z,7.57
2018-05-27T07:28:11.683Z,8.53
2018-05-27T07:30:40.137Z,7.47
2018-05-27T07:33:07.961Z,8.87
2018-05-27T07:35:35.806Z,7.53
2018-05-27T07:38:03.786Z,8.00
2018-05-27T07:40:31.815Z,7.57
2018-05-27T07:42:59.538Z,6.87
2018-05-27T07:45:35.972Z,7.70
2018-05-27T07:48:04.153Z,7.03
2018-05-27T07:50:32.509Z,7.63
2018-05-27T07:53:00.211Z,6.90
2018-05-27T07:55:28.257Z,8.60
2018-05-27T07:57:56.366Z,8.87
2018-05-27T08:00:24.061Z,6.60
2018-05-27T08:02:51.840Z,7.17
2018-05-27T08:05:19.549Z,6.70
2018-05-27T08:07:47.215Z,7.40
2018-05-27T08:10:14.904Z,6.90
2018-05-27T08:12:42.576Z,6.83
2018-05-27T08:15:10.265Z,7.10
2018-05-27T08:17:37.949Z,6.33
2018-05-27T08:20:05.729Z,6.50
2018-05-27T08:22:33.450Z,6.27
2018-05-27T08:25:01.117Z,5.90
2018-05-27T08:27:29.289Z,6.30
2018-05-27T08:29:57.017Z,6.00
2018-05-27T08:32:24.753Z,6.03
2018-05-27T08:34:52.416Z,5.60
2018-05-27T08:37:20.102Z,5.43
2018-05-27T08:39:47.797Z,5.70
2018-05-27T08:42:15.505Z,3.90
2018-05-27T08:44:43.376Z,4.60
2018-05-27T08:47:11.065Z,5.07
2018-05-27T08:49:38.756Z,5.07
2018-05-27T08:52:06.463Z,3.70
2018-05-27T08:54:34.162Z,4.17
2018-05-27T08:57:01.851Z,3.80
2018-05-27T08:59:29.544Z,4.37
2018-05-27T09:01:57.224Z,3.53
2018-05-27T09:04:24.920Z,4.20
2018-05-27T09:06:52.624Z,2.80
2018-05-27T09:09:20.320Z,3.30
2018-05-27T09:11:47.992Z,4.47
2018-05-27T09:14:15.669Z,3.53
2018-05-27T09:16:43.345Z,3.70
2018-05-27T09:19:11.016Z,3.00
2018-05-27T09:21:39.101Z,3.37
2018-05-27T09:24:07.214Z,2.83
2018-05-27T09:26:34.904Z,3.00
2018-05-27T09:29:02.570Z,2.90
2018-05-27T09:31:30.273Z,3.12
2018-05-27T09:33:57.940Z,3.17
2018-05-27T09:36:25.627Z,2.13
2018-05-27T09:38:53.306Z,5.20
2018-05-27T09:41:20.989Z,2.78
2018-05-27T09:43:48.684Z,3.10
2018-05-27T09:46:16.395Z,2.50
2018-05-27T09:48:44.114Z,2.30
2018-05-27T09:51:11.804Z,2.78
2018-05-27T09:53:39.481Z,3.08
2018-05-27T09:56:07.401Z,2.83
2018-05-27T09:58:35.121Z,2.95
2018-05-27T10:01:02.817Z,2.40
2018-05-27T10:03:30.940Z,2.37
2018-05-27T10:05:58.637Z,4.70
2018-05-27T10:08:26.297Z,2.65
2018-05-27T10:10:53.986Z,2.75
2018-05-27T10:13:21.681Z,3.60
2018-05-27T10:15:49.371Z,4.28
2018-05-27T10:18:17.223Z,4.00
2018-05-27T10:20:44.894Z,6.53
2018-05-27T10:23:12.565Z,3.50
2018-05-27T10:25:40.291Z,3.50
2018-05-27T10:28:07.974Z,3.30
2018-05-27T10:30:35.663Z,4.10
2018-05-27T10:33:03.326Z,4.70
2018-05-27T10:35:31.050Z,4.20
2018-05-27T10:37:58.750Z,4.13
2018-05-27T10:40:26.524Z,4.17
2018-05-27T10:42:54.196Z,5.47
2018-05-27T10:45:22.262Z,4.47
2018-05-27T10:47:50.342Z,4.00
2018-05-27T10:50:18.426Z,4.53
2018-05-27T10:52:46.292Z,6.90
2018-05-27T10:55:13.978Z,3.90
2018-05-27T10:57:41.657Z,4.47
2018-05-27T11:00:09.346Z,3.70
2018-05-27T11:02:37.025Z,4.13
2018-05-27T11:05:05.146Z,4.20
2018-05-27T11:07:32.845Z,3.90
2018-05-27T11:10:00.539Z,4.57
2018-05-27T11:12:28.241Z,4.10
2018-05-27T11:14:55.996Z,4.23
2018-05-27T11:17:23.682Z,4.17
2018-05-27T11:19:51.404Z,5.17
2018-05-27T11:22:19.534Z,6.10
2018-05-27T11:24:47.178Z,5.60
2018-05-27T11:27:14.951Z,5.93
2018-05-27T11:29:42.666Z,5.73
2018-05-27T11:32:10.531Z,7.47
2018-05-27T11:34:38.596Z,7.63
2018-05-27T11:37:06.297Z,7.33
2018-05-27T11:39:34.041Z,6.03
2018-05-27T11:42:01.752Z,7.17
2018-05-27T11:44:29.426Z,9.63
2018-05-27T11:46:57.454Z,6.50
2018-05-27T11:49:25.196Z,6.17
2018-05-27T11:51:52.891Z,7.03
2018-05-27T11:54:20.556Z,6.70
2018-05-27T11:56:48.238Z,6.30
2018-05-27T11:59:15.917Z,6.80
2018-05-27T12:01:43.594Z,6.50
2018-05-27T12:04:11.654Z,6.43
2018-05-27T12:06:39.344Z,6.70
2018-05-27T12:09:07.475Z,6.23
2018-05-27T12:11:35.166Z,7.13
2018-05-27T12:14:03.208Z,7.90
2018-05-27T12:16:30.863Z,6.53
2018-05-27T12:18:58.504Z,7.80
2018-05-27T12:21:26.184Z,6.47
2018-05-27T12:23:53.845Z,17.00
2018-05-27T12:26:48.805Z,6.07
2018-05-27T12:29:16.451Z,6.80
2018-05-27T12:31:44.520Z,6.23
2018-05-27T12:34:12.567Z,6.00
2018-05-27T12:36:40.290Z,20.53
2018-05-27T12:39:07.973Z,4.90
2018-05-27T12:41:35.642Z,9.40
2018-05-27T12:44:03.294Z,5.47
2018-05-27T12:46:30.961Z,8.80
2018-05-27T12:48:58.604Z,15.23
2018-05-27T12:51:26.264Z,6.77
2018-05-27T12:53:53.916Z,8.50
2018-05-27T12:56:21.574Z,6.27
2018-05-27T12:58:49.221Z,9.90
2018-05-27T13:01:17.284Z,5.40
2018-05-27T13:03:45.316Z,5.70
2018-05-27T13:06:12.988Z,6.50
2018-05-27T13:08:40.637Z,7.77
2018-05-27T13:11:08.289Z,5.03
2018-05-27T13:13:35.945Z,5.50
2018-05-27T13:16:03.603Z,6.03
2018-05-27T13:18:31.287Z,5.00
2018-05-27T13:20:58.984Z,5.87
2018-05-27T13:23:26.665Z,4.43
2018-05-27T13:25:54.443Z,4.93
2018-05-27T13:28:22.284Z,4.40
2018-05-27T13:30:50.014Z,5.30
2018-05-27T13:33:17.718Z,6.13
2018-05-27T13:35:45.771Z,8.00
2018-05-27T13:38:13.561Z,4.80
2018-05-27T13:40:41.253Z,4.60
2018-05-27T13:43:08.988Z,10.40
2018-05-27T13:45:36.664Z,5.57
2018-05-27T13:48:04.312Z,8.13
2018-05-27T13:50:32.357Z,6.30
2018-05-27T13:53:00.435Z,8.60
2018-05-27T13:55:28.565Z,5.83
2018-05-27T13:57:56.193Z,7.33
2018-05-27T14:00:23.910Z,7.87
2018-05-27T14:02:51.607Z,7.00
2018-05-27T14:05:19.376Z,5.00
2018-05-27T14:07:47.071Z,4.77
2018-05-27T14:10:14.788Z,5.00
2018-05-27T14:12:42.393Z,6.73
2018-05-27T14:15:10.731Z,4.73
2018-05-27T14:17:38.768Z,4.87
2018-05-27T14:20:06.520Z,7.43
2018-05-27T14:22:34.189Z,5.50
2018-05-27T14:25:01.843Z,7.63
2018-05-27T14:27:29.581Z,11.63
2018-05-27T14:29:57.332Z,5.53
2018-05-27T14:32:25.015Z,5.73
2018-05-27T14:34:52.662Z,5.57
2018-05-27T14:37:20.410Z,4.23
2018-05-27T14:39:48.511Z,4.27
2018-05-27T14:42:16.187Z,4.10
2018-05-27T14:44:43.919Z,5.10
2018-05-27T14:47:11.574Z,4.83
2018-05-27T14:49:39.773Z,5.37
2018-05-27T14:52:07.453Z,11.17
2018-05-27T14:54:35.096Z,6.13
2018-05-27T14:57:02.750Z,5.57
2018-05-27T14:59:30.435Z,7.23
2018-05-27T15:01:58.161Z,5.57
2018-05-27T15:04:26.289Z,10.10
2018-05-27T15:06:53.988Z,6.43
2018-05-27T15:09:22.079Z,5.50
2018-05-27T15:11:49.762Z,6.47
2018-05-27T15:14:17.535Z,5.87
2018-05-27T15:16:45.230Z,6.20
2018-05-27T15:19:12.880Z,6.40
2018-05-27T15:21:40.556Z,6.13
2018-05-27T15:24:08.218Z,8.43
2018-05-27T15:26:35.915Z,12.07
2018-05-27T15:29:03.560Z,6.90
2018-05-27T15:31:31.620Z,5.80
2018-05-27T15:33:59.317Z,7.27
2018-05-27T15:36:27.005Z,5.60
2018-05-27T15:38:54.648Z,6.33
2018-05-27T15:41:22.385Z,6.13
2018-05-27T15:43:50.453Z,6.53
2018-05-27T15:46:18.511Z,7.17
2018-05-27T15:48:46.207Z,5.50
2018-05-27T15:51:13.873Z,9.83
2018-05-27T15:53:41.519Z,6.90
2018-05-27T15:56:09.200Z,6.80
2018-05-27T15:58:37.131Z,6.20
2018-05-27T16:01:04.828Z,6.10
2018-05-27T16:03:32.480Z,6.50
2018-05-27T16:06:00.139Z,8.20
2018-05-27T16:08:28.176Z,6.50
2018-05-27T16:10:55.841Z,6.07
2018-05-27T16:13:23.983Z,6.20
2018-05-27T16:15:51.916Z,6.07
2018-05-27T16:18:19.724Z,5.80
2018-05-27T16:20:47.376Z,6.83
2018-05-27T16:23:15.101Z,6.67
2018-05-27T16:25:43.247Z,6.50
2018-05-27T16:28:10.930Z,6.43
2018-05-27T16:30:39.113Z,6.63
2018-05-27T16:33:07.150Z,5.87
2018-05-27T16:35:34.820Z,6.80
2018-05-27T16:38:02.700Z,7.43
2018-05-27T16:40:31.003Z,11.00
2018-05-27T16:42:58.725Z,7.73
2018-05-27T16:45:26.406Z,6.90
2018-05-27T16:47:54.485Z,9.77
2018-05-27T16:50:22.537Z,7.67
2018-05-27T16:52:50.217Z,10.13
2018-05-27T16:55:18.440Z,7.37
2018-05-27T16:57:46.164Z,7.97
2018-05-27T17:00:14.401Z,7.10
2018-05-27T17:02:42.114Z,8.47
2018-05-27T17:05:10.635Z,5.93
2018-05-27T17:07:38.301Z,7.70
2018-05-27T17:10:06.017Z,8.43
2018-05-27T17:12:33.812Z,7.60
2018-05-27T17:15:01.572Z,8.33
2018-05-27T17:17:29.310Z,9.20
2018-05-27T17:19:57.101Z,7.80
2018-05-27T17:22:24.779Z,8.27
2018-05-27T17:24:52.429Z,7.90
2018-05-27T17:27:20.165Z,7.50
2018-05-27T17:29:47.910Z,8.23
2018-05-27T17:32:15.996Z,9.37
2018-05-27T17:34:43.653Z,10.73
2018-05-27T17:37:11.349Z,7.47
2018-05-27T17:39:39.086Z,8.20
2018-05-27T17:42:06.749Z,8.60
2018-05-27T17:44:34.510Z,7.97
2018-05-27T17:47:02.390Z,9.13
2018-05-27T17:49:30.094Z,9.27
2018-05-27T17:51:57.764Z,11.43
2018-05-27T17:54:25.657Z,10.03
2018-05-27T17:56:53.308Z,9.57
2018-05-27T17:59:20.972Z,9.63
2018-05-27T18:01:48.635Z,9.87
2018-05-27T18:04:16.748Z,12.87
2018-05-27T18:06:44.349Z,8.43
2018-05-27T18:09:12.330Z,9.97
2018-05-27T18:11:40.261Z,9.53
2018-05-27T18:14:07.915Z,16.57
2018-05-27T18:16:35.573Z,9.53
2018-05-27T18:19:03.358Z,10.50
2018-05-27T18:21:31.012Z,9.40
2018-05-27T18:23:58.652Z,9.67
2018-05-27T18:26:26.314Z,9.90
2018-05-27T18:28:53.965Z,10.73
2018-05-27T18:31:21.660Z,12.10
2018-05-27T18:33:49.313Z,9.40
2018-05-27T18:36:16.980Z,10.10
2018-05-27T18:38:44.714Z,10.00
2018-05-27T18:41:12.767Z,10.67
2018-05-27T18:43:40.973Z,10.57
2018-05-27T18:46:08.762Z,10.40
2018-05-27T18:48:36.878Z,10.63
2018-05-27T18:51:04.590Z,10.13
2018-05-27T18:53:32.264Z,11.27
2018-05-27T18:55:59.917Z,9.40
2018-05-27T18:58:28.034Z,9.70
2018-05-27T19:00:56.131Z,9.67
2018-05-27T19:03:23.882Z,9.37
2018-05-27T19:05:52.048Z,10.97
2018-05-27T19:08:20.244Z,10.57
2018-05-27T19:10:47.917Z,10.80
2018-05-27T19:13:15.568Z,10.93
2018-05-27T19:15:43.271Z,10.80
2018-05-27T19:18:10.925Z,11.03
2018-05-27T19:20:38.577Z,11.20
2018-05-27T19:23:06.240Z,11.33
2018-05-27T19:25:33.916Z,11.93
2018-05-27T19:28:01.640Z,11.50
2018-05-27T19:30:29.681Z,19.13
2018-05-27T19:32:57.364Z,11.93
2018-05-27T19:35:25.742Z,13.07
2018-05-27T19:37:53.816Z,13.97
2018-05-27T19:40:21.888Z,12.97
2018-05-27T19:42:49.637Z,14.27
2018-05-27T19:45:17.326Z,12.63
2018-05-27T19:47:45.044Z,13.07
2018-05-27T19:50:12.695Z,12.00
2018-05-27T19:52:40.450Z,12.60
2018-05-27T19:55:08.143Z,10.60
2018-05-27T19:57:35.915Z,12.17
2018-05-27T20:00:03.569Z,11.77
2018-05-27T20:02:31.269Z,12.80
2018-05-27T20:04:58.920Z,12.90
2018-05-27T20:07:26.983Z,12.43
2018-05-27T20:09:54.681Z,12.13
2018-05-27T20:12:22.331Z,14.07
2018-05-27T20:14:49.973Z,12.07
2018-05-27T20:17:18.045Z,12.20
2018-05-27T20:19:45.719Z,11.87
2018-05-27T20:22:13.379Z,11.83
2018-05-27T20:24:41.035Z,11.93
2018-05-27T20:27:08.802Z,12.23
2018-05-27T20:29:36.841Z,11.30
2018-05-27T20:32:04.528Z,13.00
2018-05-27T20:34:32.590Z,17.37
2018-05-27T20:37:00.675Z,12.20
2018-05-27T20:39:28.748Z,10.93
2018-05-27T20:41:56.399Z,11.80
2018-05-27T20:44:24.046Z,11.67
2018-05-27T20:46:51.705Z,11.87
2018-05-27T20:49:19.356Z,11.97
2018-05-27T20:51:47.021Z,12.40
2018-05-27T20:54:14.706Z,13.20
2018-05-27T20:56:42.844Z,12.57
2018-05-27T20:59:10.689Z,12.00
2018-05-27T21:01:38.350Z,12.23
2018-05-27T21:04:06.075Z,10.10
2018-05-27T21:06:33.745Z,16.77
2018-05-27T21:09:01.843Z,10.57
2018-05-27T21:11:29.511Z,11.87
2018-05-27T21:13:57.169Z,12.07
2018-05-27T21:16:24.846Z,12.20
2018-05-27T21:18:52.491Z,11.23
2018-05-27T21:21:20.181Z,12.03
2018-05-27T21:23:47.862Z,11.50
2018-05-27T21:26:15.537Z,10.60
2018-05-27T21:28:43.220Z,12.70
2018-05-27T21:31:10.890Z,12.73
2018-05-27T21:33:38.573Z,12.13
2018-05-27T21:36:06.273Z,13.33
2018-05-27T21:38:33.950Z,11.23
2018-05-27T21:41:01.631Z,12.00
2018-05-27T21:43:29.710Z,11.83
2018-05-27T21:45:57.772Z,11.73
2018-05-27T21:48:25.498Z,12.13
2018-05-27T21:50:53.158Z,12.63
2018-05-27T21:53:20.832Z,12.73
2018-05-27T21:55:48.517Z,16.87
2018-05-27T21:58:16.556Z,11.83
2018-05-27T22:00:44.213Z,12.60
2018-05-27T22:03:12.030Z,14.20
2018-05-27T22:05:39.709Z,12.60
2018-05-27T22:08:07.514Z,15.83
2018-05-27T22:10:35.239Z,13.40
2018-05-27T22:13:03.077Z,11.43
2018-05-27T22:15:31.147Z,13.07
2018-05-27T22:17:59.188Z,12.90
2018-05-27T22:20:26.894Z,13.23
2018-05-27T22:22:54.940Z,14.70
2018-05-27T22:25:22.604Z,13.47
2018-05-27T22:27:50.723Z,15.63
2018-05-27T22:30:18.753Z,15.97
2018-05-27T22:32:46.411Z,14.10
2018-05-27T22:35:14.606Z,13.77
2018-05-27T22:37:42.280Z,24.40
2018-05-27T22:40:09.956Z,17.23
2018-05-27T22:42:37.694Z,14.37
2018-05-27T22:45:05.850Z,13.87
2018-05-27T22:47:33.511Z,16.83
2018-05-27T22:50:01.588Z,18.83
2018-05-27T22:52:29.815Z,14.90
2018-05-27T22:54:57.487Z,14.30
2018-05-27T22:57:25.302Z,15.97
2018-05-27T22:59:53.362Z,15.17
2018-05-27T23:02:21.417Z,15.13
2018-05-27T23:04:49.198Z,14.87
2018-05-27T23:07:17.408Z,15.83
2018-05-27T23:09:45.591Z,15.77
2018-05-27T23:12:13.245Z,23.20
2018-05-27T23:14:41.006Z,15.37
2018-05-27T23:17:08.754Z,16.37
2018-05-27T23:19:36.833Z,15.80
2018-05-27T23:22:04.488Z,15.27
2018-05-27T23:24:32.554Z,15.77
2018-05-27T23:27:00.634Z,15.27
2018-05-27T23:29:28.282Z,20.90
2018-05-27T23:31:56.396Z,15.67
2018-05-27T23:34:24.085Z,22.47
2018-05-27T23:36:51.956Z,19.30
2018-05-27T23:39:19.655Z,15.50
2018-05-27T23:41:47.738Z,15.70
2018-05-27T23:44:15.509Z,15.93
2018-05-27T23:46:43.175Z,16.37
2018-05-27T23:49:10.830Z,16.80
2018-05-27T23:51:38.501Z,16.27
2018-05-27T23:54:06.160Z,19.40
2018-05-27T23:56:33.821Z,16.40
2018-05-27T23:59:01.548Z,15.90
